createdAt,value
2024-04-08T00:01:47.282Z,21.31
2024-04-08T00:04:14.735Z,21.31
2024-04-08T00:06:42.164Z,21.31
2024-04-08T00:09:09.699Z,21.30
2024-04-08T00:11:37.247Z,21.30
2024-04-08T00:14:04.869Z,21.30
2024-04-08T00:16:32.341Z,21.30
2024-04-08T00:18:59.922Z,21.30
2024-04-08T00:21:27.468Z,21.29
2024-04-08T00:23:54.938Z,21.30
2024-04-08T00:26:22.403Z,21.30
2024-04-08T00:28:50.925Z,21.30
2024-04-08T00:31:18.469Z,21.29
2024-04-08T00:33:46.014Z,21.29
2024-04-08T00:36:14.310Z,21.28
2024-04-08T00:38:41.896Z,21.28
2024-04-08T00:41:09.529Z,21.29
2024-04-08T00:43:36.981Z,21.29
2024-04-08T00:46:04.769Z,21.29
2024-04-08T00:48:32.281Z,21.28
2024-04-08T00:50:59.942Z,21.30
2024-04-08T00:53:27.684Z,21.29
2024-04-08T00:55:56.275Z,21.28
2024-04-08T00:58:24.708Z,21.28
2024-04-08T01:00:52.249Z,21.28
2024-04-08T01:03:20.251Z,21.28
2024-04-08T01:05:49.319Z,21.28
2024-04-08T01:08:16.846Z,21.28
2024-04-08T01:10:44.760Z,21.27
2024-04-08T01:13:12.382Z,21.27
2024-04-08T01:15:40.140Z,21.28
2024-04-08T01:18:07.772Z,21.27
2024-04-08T01:20:35.261Z,21.27
2024-04-08T01:23:02.984Z,21.28
2024-04-08T01:25:30.512Z,21.27
2024-04-08T01:27:58.174Z,21.27
2024-04-08T01:30:26.322Z,21.27
2024-04-08T01:32:53.856Z,21.27
2024-04-08T01:35:21.353Z,21.27
2024-04-08T01:37:48.801Z,21.26
2024-04-08T01:40:16.313Z,21.27
2024-04-08T01:42:43.868Z,21.26
2024-04-08T01:45:11.350Z,21.27
2024-04-08T01:47:38.951Z,21.27
2024-04-08T01:50:07.372Z,21.26
2024-04-08T01:52:34.894Z,21.26
2024-04-08T01:55:02.787Z,21.25
2024-04-08T01:57:30.268Z,21.26
2024-04-08T01:59:57.985Z,21.26
2024-04-08T02:02:25.567Z,21.26
2024-04-08T02:04:53.059Z,21.25
2024-04-08T02:07:20.688Z,21.26
2024-04-08T02:09:48.295Z,21.27
2024-04-08T02:12:15.751Z,21.25
2024-04-08T02:14:43.244Z,21.25
2024-04-08T02:17:10.705Z,21.26
2024-04-08T02:19:38.262Z,21.24
2024-04-08T02:22:05.766Z,21.24
2024-04-08T02:24:33.376Z,21.26
2024-04-08T02:27:00.860Z,21.26
2024-04-08T02:29:28.660Z,21.25
2024-04-08T02:31:56.107Z,21.26
2024-04-08T02:34:23.538Z,21.25
2024-04-08T02:36:50.993Z,21.25
2024-04-08T02:39:18.756Z,21.24
2024-04-08T02:41:46.356Z,21.26
2024-04-08T02:44:13.882Z,21.23
2024-04-08T02:46:41.544Z,21.24
2024-04-08T02:49:08.988Z,21.23
2024-04-08T02:51:37.321Z,21.23
2024-04-08T02:54:04.821Z,21.23
2024-04-08T02:56:33.675Z,21.24
2024-04-08T02:59:01.127Z,21.23
2024-04-08T03:01:28.747Z,21.23
2024-04-08T03:03:56.237Z,21.22
2024-04-08T03:06:23.738Z,21.24
2024-04-08T03:08:51.366Z,21.24
2024-04-08T03:11:18.982Z,21.23
2024-04-08T03:13:47.337Z,21.24
2024-04-08T03:16:14.779Z,21.26
2024-04-08T03:18:42.287Z,21.25
2024-04-08T03:21:09.869Z,21.26
2024-04-08T03:23:37.423Z,21.26
2024-04-08T03:26:08.147Z,21.26
2024-04-08T03:28:35.977Z,21.26
2024-04-08T03:31:05.145Z,21.27
2024-04-08T03:33:33.447Z,21.26
2024-04-08T03:36:02.093Z,21.26
2024-04-08T03:38:29.634Z,21.26
2024-04-08T03:41:01.289Z,21.27
2024-04-08T03:43:29.551Z,21.26
2024-04-08T03:45:58.515Z,21.26
2024-04-08T03:48:26.240Z,21.26
2024-04-08T03:50:54.220Z,21.26
2024-04-08T03:53:21.803Z,21.26
2024-04-08T03:55:49.327Z,21.26
2024-04-08T03:58:16.785Z,21.23
2024-04-08T04:00:44.233Z,21.26
2024-04-08T04:03:11.878Z,21.24
2024-04-08T04:05:39.455Z,21.24
2024-04-08T04:08:07.221Z,21.24
2024-04-08T04:10:34.689Z,21.23
2024-04-08T04:13:02.272Z,21.24
2024-04-08T04:15:29.915Z,21.24
2024-04-08T04:17:57.567Z,21.22
2024-04-08T04:20:28.411Z,21.23
2024-04-08T04:22:55.919Z,21.22
2024-04-08T04:25:24.567Z,21.21
2024-04-08T04:27:52.119Z,21.21
2024-04-08T04:30:20.036Z,21.21
2024-04-08T04:32:48.003Z,21.20
2024-04-08T04:35:15.884Z,21.21
2024-04-08T04:37:43.676Z,21.20
2024-04-08T04:40:11.344Z,21.21
2024-04-08T04:42:38.771Z,21.22
2024-04-08T04:45:09.067Z,21.20
2024-04-08T04:47:36.618Z,21.20
2024-04-08T04:50:05.285Z,21.20
2024-04-08T04:52:34.653Z,21.20
2024-04-08T04:55:02.163Z,21.20
2024-04-08T04:57:29.586Z,21.20
2024-04-08T04:59:57.098Z,21.20
2024-04-08T05:02:24.621Z,21.20
2024-04-08T05:04:52.125Z,21.19
2024-04-08T05:07:19.680Z,21.19
2024-04-08T05:09:47.133Z,21.18
2024-04-08T05:12:14.638Z,21.18
2024-04-08T05:14:42.167Z,21.19
2024-04-08T05:17:09.620Z,21.19
2024-04-08T05:19:37.912Z,21.18
2024-04-08T05:22:05.439Z,21.18
2024-04-08T05:24:32.930Z,21.19
2024-04-08T05:27:00.437Z,21.17
2024-04-08T05:29:28.153Z,21.18
2024-04-08T05:31:55.649Z,21.17
2024-04-08T05:34:23.080Z,21.18
2024-04-08T05:36:50.764Z,21.17
2024-04-08T05:39:18.299Z,21.17
2024-04-08T05:41:45.914Z,21.18
2024-04-08T05:44:13.440Z,21.17
2024-04-08T05:46:40.983Z,21.19
2024-04-08T05:49:08.423Z,21.18
2024-04-08T05:51:36.070Z,21.19
2024-04-08T05:54:03.607Z,21.19
2024-04-08T05:56:31.219Z,21.18
2024-04-08T05:59:00.878Z,21.19
2024-04-08T06:01:30.010Z,21.18
2024-04-08T06:03:57.641Z,21.18
2024-04-08T06:06:25.162Z,21.18
2024-04-08T06:09:04.538Z,21.14
2024-04-08T06:11:32.659Z,21.09
2024-04-08T06:14:00.803Z,21.06
2024-04-08T06:16:28.290Z,21.03
2024-04-08T06:18:57.138Z,21.01
2024-04-08T06:21:25.854Z,21.01
2024-04-08T06:23:53.326Z,21.01
2024-04-08T06:26:21.042Z,21.00
2024-04-08T06:28:48.477Z,21.00
2024-04-08T06:31:16.010Z,21.01
2024-04-08T06:33:43.459Z,21.02
2024-04-08T06:36:13.915Z,21.03
2024-04-08T06:38:41.459Z,21.03
2024-04-08T06:41:08.925Z,21.05
2024-04-08T06:43:36.487Z,21.05
2024-04-08T06:46:04.087Z,21.05
2024-04-08T06:48:31.607Z,21.08
2024-04-08T06:50:59.644Z,21.09
2024-04-08T06:53:27.348Z,21.11
2024-04-08T06:55:54.924Z,21.11
2024-04-08T06:58:23.326Z,21.15
2024-04-08T07:00:51.801Z,21.17
2024-04-08T07:03:19.664Z,21.22
2024-04-08T07:05:47.909Z,21.29
2024-04-08T07:08:18.323Z,21.34
2024-04-08T07:10:47.399Z,21.40
2024-04-08T07:13:14.965Z,21.43
2024-04-08T07:15:44.239Z,21.47
2024-04-08T07:18:12.314Z,21.51
2024-04-08T07:20:40.172Z,21.54
2024-04-08T07:23:07.819Z,21.58
2024-04-08T07:25:35.311Z,21.61
2024-04-08T07:28:02.871Z,21.65
2024-04-08T07:30:31.377Z,21.68
2024-04-08T07:32:59.225Z,21.68
2024-04-08T07:35:28.139Z,21.71
2024-04-08T07:37:55.803Z,21.71
2024-04-08T07:40:23.875Z,21.72
2024-04-08T07:42:51.765Z,21.72
2024-04-08T07:45:19.367Z,21.73
2024-04-08T07:47:46.962Z,21.75
2024-04-08T07:50:14.568Z,21.76
2024-04-08T07:52:42.083Z,21.77
2024-04-08T07:55:10.041Z,21.78
2024-04-08T07:57:37.501Z,21.79
2024-04-08T08:00:05.873Z,21.79
2024-04-08T08:02:37.665Z,21.80
2024-04-08T08:05:05.467Z,21.80
2024-04-08T08:07:32.910Z,21.81
2024-04-08T08:10:00.422Z,21.82
2024-04-08T08:12:28.331Z,21.80
2024-04-08T08:14:55.939Z,21.81
2024-04-08T08:17:29.504Z,21.81
2024-04-08T08:19:57.435Z,21.78
2024-04-08T08:22:25.889Z,21.78
2024-04-08T08:24:53.436Z,21.79
2024-04-08T08:27:21.018Z,21.79
2024-04-08T08:29:51.399Z,21.79
2024-04-08T08:32:19.236Z,21.83
2024-04-08T08:34:46.765Z,21.84
2024-04-08T08:37:14.169Z,21.86
2024-04-08T08:39:41.671Z,21.89
2024-04-08T08:42:13.947Z,21.89
2024-04-08T08:44:50.363Z,21.90
2024-04-08T08:47:18.081Z,21.91
2024-04-08T08:49:46.709Z,21.92
2024-04-08T08:52:14.406Z,21.93
2024-04-08T08:54:41.945Z,21.94
2024-04-08T08:57:11.364Z,21.92
2024-04-08T08:59:38.853Z,21.90
2024-04-08T09:02:06.563Z,21.91
2024-04-08T09:04:36.169Z,21.88
2024-04-08T09:07:03.646Z,21.86
2024-04-08T09:09:33.192Z,21.85
2024-04-08T09:12:01.386Z,21.84
2024-04-08T09:14:30.282Z,21.82
2024-04-08T09:17:11.974Z,21.80
2024-04-08T09:19:39.448Z,21.78
2024-04-08T09:22:08.705Z,21.79
2024-04-08T09:24:36.444Z,21.78
2024-04-08T09:27:06.945Z,21.77
2024-04-08T09:29:34.618Z,21.76
2024-04-08T09:32:02.192Z,21.77
2024-04-08T09:34:30.707Z,21.75
2024-04-08T09:36:58.185Z,21.77
2024-04-08T09:39:27.180Z,21.75
2024-04-08T09:41:57.928Z,21.76
2024-04-08T09:44:31.776Z,21.75
2024-04-08T09:47:02.324Z,21.76
2024-04-08T09:49:41.553Z,21.75
2024-04-08T09:52:15.926Z,21.74
2024-04-08T09:54:43.492Z,21.75
2024-04-08T09:57:16.255Z,21.72
2024-04-08T09:59:48.752Z,21.73
2024-04-08T10:02:21.190Z,21.73
2024-04-08T10:04:54.264Z,21.73
2024-04-08T10:07:21.982Z,21.73
2024-04-08T10:09:50.031Z,21.73
2024-04-08T10:12:17.584Z,21.72
2024-04-08T10:14:45.258Z,21.75
2024-04-08T10:17:13.200Z,21.73
2024-04-08T10:19:44.727Z,21.72
2024-04-08T10:22:16.749Z,21.72
2024-04-08T10:24:44.272Z,21.73
2024-04-08T10:27:13.533Z,21.72
2024-04-08T10:29:42.443Z,21.73
2024-04-08T10:32:10.668Z,21.74
2024-04-08T10:34:38.285Z,21.72
2024-04-08T10:37:05.715Z,21.72
2024-04-08T10:39:33.192Z,21.72
2024-04-08T10:42:14.288Z,21.73
2024-04-08T10:44:43.262Z,21.73
2024-04-08T10:47:11.050Z,21.73
2024-04-08T10:49:41.660Z,21.72
2024-04-08T10:52:11.863Z,21.73
2024-04-08T10:54:39.605Z,21.72
2024-04-08T10:57:07.169Z,21.72
2024-04-08T10:59:34.643Z,21.72
2024-04-08T11:02:02.251Z,21.71
2024-04-08T11:04:31.048Z,21.71
2024-04-08T11:06:58.654Z,21.71
2024-04-08T11:09:26.627Z,21.72
2024-04-08T11:11:54.845Z,21.72
2024-04-08T11:14:22.919Z,21.71
2024-04-08T11:16:50.418Z,21.72
2024-04-08T11:19:18.366Z,21.72
2024-04-08T11:21:45.945Z,21.71
2024-04-08T11:24:13.550Z,21.72
2024-04-08T11:26:52.535Z,21.71
2024-04-08T11:29:23.344Z,21.71
2024-04-08T11:31:50.883Z,21.72
2024-04-08T11:34:18.282Z,21.71
2024-04-08T11:36:46.041Z,21.71
2024-04-08T11:39:13.620Z,21.71
2024-04-08T11:41:41.226Z,21.72
2024-04-08T11:44:08.803Z,21.71
2024-04-08T11:46:36.955Z,21.73
2024-04-08T11:49:04.489Z,21.71
2024-04-08T11:51:32.563Z,21.71
2024-04-08T11:54:00.076Z,21.72
2024-04-08T11:56:27.551Z,21.71
2024-04-08T11:58:55.076Z,21.71
2024-04-08T12:01:22.962Z,21.71
2024-04-08T12:03:50.518Z,21.72
2024-04-08T12:06:18.102Z,21.71
2024-04-08T12:08:45.547Z,21.71
2024-04-08T12:11:13.137Z,21.71
2024-04-08T12:13:43.681Z,21.71
2024-04-08T12:16:11.791Z,21.72
2024-04-08T12:18:39.495Z,21.70
2024-04-08T12:21:07.053Z,21.72
2024-04-08T12:23:34.543Z,21.70
2024-04-08T12:26:02.214Z,21.71
2024-04-08T12:28:29.722Z,21.71
2024-04-08T12:30:59.091Z,21.71
2024-04-08T12:33:26.936Z,21.70
2024-04-08T12:35:54.768Z,21.70
2024-04-08T12:38:22.331Z,21.71
2024-04-08T12:40:49.814Z,21.71
2024-04-08T12:43:17.478Z,21.70
2024-04-08T12:45:45.161Z,21.70
2024-04-08T12:48:13.474Z,21.70
2024-04-08T12:50:42.873Z,21.71
2024-04-08T12:53:10.663Z,21.70
2024-04-08T12:55:40.409Z,21.69
2024-04-08T12:58:10.191Z,21.71
2024-04-08T13:00:37.984Z,21.71
2024-04-08T13:03:06.640Z,21.72
2024-04-08T13:05:34.213Z,21.71
2024-04-08T13:08:02.085Z,21.70
2024-04-08T13:10:29.598Z,21.71
2024-04-08T13:12:57.136Z,21.70
2024-04-08T13:15:24.868Z,21.71
2024-04-08T13:17:52.476Z,21.70
2024-04-08T13:20:23.135Z,21.71
2024-04-08T13:22:55.889Z,21.70
2024-04-08T13:25:23.421Z,21.69
2024-04-08T13:27:51.028Z,21.69
2024-04-08T13:30:19.692Z,21.70
2024-04-08T13:32:47.397Z,21.71
2024-04-08T13:35:15.196Z,21.70
2024-04-08T13:37:42.788Z,21.70
2024-04-08T13:40:10.506Z,21.70
2024-04-08T13:42:37.961Z,21.69
2024-04-08T13:45:06.262Z,21.70
2024-04-08T13:47:33.967Z,21.71
2024-04-08T13:50:01.775Z,21.70
2024-04-08T13:52:29.278Z,21.71
2024-04-08T13:54:56.715Z,21.71
2024-04-08T13:57:24.226Z,21.71
2024-04-08T13:59:51.834Z,21.72
2024-04-08T14:02:19.360Z,21.72
2024-04-08T14:04:46.800Z,21.71
2024-04-08T14:07:14.230Z,21.71
2024-04-08T14:09:41.780Z,21.72
2024-04-08T14:12:09.388Z,21.71
2024-04-08T14:14:36.828Z,21.71
2024-04-08T14:17:04.399Z,21.70
2024-04-08T14:19:31.851Z,21.70
2024-04-08T14:21:59.274Z,21.71
2024-04-08T14:24:26.888Z,21.70
2024-04-08T14:26:54.536Z,21.71
2024-04-08T14:29:27.062Z,21.71
2024-04-08T14:31:55.154Z,21.72
2024-04-08T14:34:22.760Z,21.71
2024-04-08T14:36:52.014Z,21.71
2024-04-08T14:39:28.958Z,21.72
2024-04-08T14:42:04.372Z,21.71
2024-04-08T14:44:40.491Z,21.72
2024-04-08T14:47:12.967Z,21.71
2024-04-08T14:49:40.453Z,21.71
2024-04-08T14:52:10.932Z,21.69
2024-04-08T14:54:43.464Z,21.71
2024-04-08T14:57:11.348Z,21.71
2024-04-08T14:59:38.925Z,21.70
2024-04-08T15:02:07.311Z,21.70
2024-04-08T15:04:34.988Z,21.70
2024-04-08T15:07:04.277Z,21.71
2024-04-08T15:09:40.367Z,21.71
2024-04-08T15:12:08.873Z,21.70
2024-04-08T15:14:36.323Z,21.70
2024-04-08T15:17:03.944Z,21.70
2024-04-08T15:19:31.403Z,21.69
2024-04-08T15:21:58.910Z,21.70
2024-04-08T15:24:26.515Z,21.70
2024-04-08T15:26:53.972Z,21.70
2024-04-08T15:29:21.492Z,21.70
2024-04-08T15:31:48.968Z,21.69
2024-04-08T15:34:16.650Z,21.70
2024-04-08T15:36:44.484Z,21.70
2024-04-08T15:39:12.942Z,21.70
2024-04-08T15:41:42.083Z,21.70
2024-04-08T15:44:10.724Z,21.70
2024-04-08T15:46:38.298Z,21.70
2024-04-08T15:49:05.989Z,21.71
2024-04-08T15:51:33.663Z,21.70
2024-04-08T15:54:01.424Z,21.71
2024-04-08T15:56:28.949Z,21.70
2024-04-08T15:58:56.900Z,21.70
2024-04-08T16:01:24.399Z,21.70
2024-04-08T16:03:52.232Z,21.70
2024-04-08T16:06:19.938Z,21.71
2024-04-08T16:08:47.400Z,21.71
2024-04-08T16:11:19.420Z,21.71
2024-04-08T16:13:47.058Z,21.71
2024-04-08T16:16:14.694Z,21.71
2024-04-08T16:18:42.735Z,21.71
2024-04-08T16:21:10.440Z,21.71
2024-04-08T16:26:08.591Z,21.70
2024-04-08T16:28:36.713Z,21.71
2024-04-08T16:31:06.157Z,21.72
2024-04-08T16:33:34.464Z,21.72
2024-04-08T16:36:03.217Z,21.73
2024-04-08T16:38:30.767Z,21.73
2024-04-08T16:40:59.954Z,21.74
2024-04-08T16:43:29.220Z,21.75
2024-04-08T16:46:01.137Z,21.75
2024-04-08T16:48:30.024Z,21.76
2024-04-08T16:50:58.931Z,21.77
2024-04-08T16:53:29.665Z,21.77
2024-04-08T16:56:04.668Z,21.78
2024-04-08T16:58:32.615Z,21.78
2024-04-08T17:01:01.092Z,21.80
2024-04-08T17:03:29.317Z,21.80
2024-04-08T17:06:07.496Z,21.83
2024-04-08T17:08:34.945Z,21.83
2024-04-08T17:11:03.035Z,21.83
2024-04-08T17:13:35.636Z,21.82
2024-04-08T17:16:06.508Z,21.82
2024-04-08T17:18:34.253Z,21.82
2024-04-08T17:21:05.380Z,21.82
2024-04-08T17:23:33.206Z,21.83
2024-04-08T17:26:01.104Z,21.83
2024-04-08T17:28:29.529Z,21.84
2024-04-08T17:30:58.685Z,21.84
2024-04-08T17:33:28.655Z,21.84
2024-04-08T17:35:57.695Z,21.84
2024-04-08T17:38:26.508Z,21.84
2024-04-08T17:40:57.182Z,21.84
2024-04-08T17:43:24.679Z,21.85
2024-04-08T17:45:52.231Z,21.84
2024-04-08T17:48:20.522Z,21.84
2024-04-08T17:50:52.221Z,21.85
2024-04-08T17:53:21.346Z,21.85
2024-04-08T17:56:10.581Z,21.85
2024-04-08T17:58:38.797Z,21.85
2024-04-08T18:01:08.721Z,21.83
2024-04-08T18:03:37.311Z,21.85
2024-04-08T18:06:10.822Z,21.86
2024-04-08T18:08:42.312Z,21.86
2024-04-08T18:11:12.473Z,21.87
2024-04-08T18:13:41.030Z,21.87
2024-04-08T18:16:16.937Z,21.88
2024-04-08T18:18:53.038Z,21.89
2024-04-08T18:21:22.243Z,21.89
2024-04-08T18:23:50.894Z,21.90
2024-04-08T18:26:20.406Z,21.89
2024-04-08T18:28:49.276Z,21.90
2024-04-08T18:31:17.644Z,21.90
2024-04-08T18:33:46.110Z,21.90
2024-04-08T18:36:15.236Z,21.89
2024-04-08T18:38:42.996Z,21.90
2024-04-08T18:41:13.465Z,21.91
2024-04-08T18:43:42.363Z,21.91
2024-04-08T18:46:12.316Z,21.92
2024-04-08T18:48:40.425Z,21.93
2024-04-08T18:51:08.099Z,21.92
2024-04-08T18:53:35.748Z,21.93
2024-04-08T18:56:04.068Z,21.93
2024-04-08T18:58:31.668Z,21.93
2024-04-08T19:01:06.519Z,21.93
2024-04-08T19:03:37.788Z,21.93
2024-04-08T19:06:06.006Z,21.93
2024-04-08T19:08:33.593Z,21.94
2024-04-08T19:11:01.097Z,21.93
2024-04-08T19:13:28.545Z,21.94
2024-04-08T19:16:01.811Z,21.94
2024-04-08T19:18:29.380Z,21.94
2024-04-08T19:20:58.118Z,21.95
2024-04-08T19:23:26.082Z,21.94
2024-04-08T19:26:00.081Z,21.94
2024-04-08T19:28:30.964Z,21.95
2024-04-08T19:30:58.500Z,21.95
2024-04-08T19:33:26.449Z,21.95
2024-04-08T19:36:03.724Z,21.95
2024-04-08T19:38:32.229Z,21.96
2024-04-08T19:41:06.172Z,21.96
2024-04-08T19:43:34.257Z,21.96
2024-04-08T19:46:13.604Z,21.96
2024-04-08T19:48:44.659Z,21.96
2024-04-08T19:51:21.160Z,21.96
2024-04-08T19:53:54.427Z,21.95
2024-04-08T19:56:25.915Z,21.96
2024-04-08T19:58:54.439Z,21.94
2024-04-08T20:01:22.529Z,21.95
2024-04-08T20:03:50.602Z,21.95
2024-04-08T20:06:18.850Z,21.95
2024-04-08T20:08:46.650Z,21.95
2024-04-08T20:11:14.301Z,21.96
2024-04-08T20:13:43.781Z,21.95
2024-04-08T20:16:17.122Z,21.95
2024-04-08T20:18:48.560Z,21.95
2024-04-08T20:21:17.828Z,21.96
2024-04-08T20:23:45.747Z,21.97
2024-04-08T20:26:13.880Z,21.97
2024-04-08T20:28:44.760Z,21.97
2024-04-08T20:31:12.749Z,21.96
2024-04-08T20:33:40.776Z,21.97
2024-04-08T20:36:10.745Z,21.97
2024-04-08T20:38:39.015Z,21.97
2024-04-08T20:41:08.336Z,21.98
2024-04-08T20:43:39.095Z,21.97
2024-04-08T20:46:07.517Z,21.96
2024-04-08T20:48:35.865Z,21.96
2024-04-08T20:51:05.895Z,21.96
2024-04-08T20:53:34.563Z,21.96
2024-04-08T20:56:10.498Z,21.96
2024-04-08T20:58:39.543Z,21.97
2024-04-08T21:01:10.771Z,21.96
2024-04-08T21:03:39.840Z,21.96
2024-04-08T21:06:12.264Z,21.97
2024-04-08T21:08:44.417Z,21.97
2024-04-08T21:11:13.534Z,21.97
2024-04-08T21:13:41.984Z,21.97
2024-04-08T21:16:10.326Z,21.97
2024-04-08T21:18:38.907Z,21.97
2024-04-08T21:21:11.818Z,21.97
2024-04-08T21:23:40.177Z,21.95
2024-04-08T21:26:19.282Z,21.97
2024-04-08T21:28:48.754Z,21.98
2024-04-08T21:31:17.621Z,21.95
2024-04-08T21:33:51.471Z,21.97
2024-04-08T21:36:20.141Z,21.98
2024-04-08T21:38:52.305Z,21.98
2024-04-08T21:41:21.717Z,21.98
2024-04-08T21:43:49.426Z,21.97
2024-04-08T21:46:20.177Z,21.98
2024-04-08T21:48:48.834Z,21.96
2024-04-08T21:51:19.247Z,21.96
2024-04-08T21:53:47.188Z,21.96
2024-04-08T21:56:15.515Z,21.96
2024-04-08T21:58:43.237Z,21.96
2024-04-08T22:01:11.883Z,21.95
2024-04-08T22:03:40.694Z,21.95
2024-04-08T22:06:17.564Z,21.95
2024-04-08T22:08:46.661Z,21.95
2024-04-08T22:11:14.557Z,21.94
2024-04-08T22:13:42.493Z,21.95
2024-04-08T22:16:10.718Z,21.95
2024-04-08T22:18:38.580Z,21.94
2024-04-08T22:21:06.310Z,21.92
2024-04-08T22:23:33.829Z,21.93
2024-04-08T22:26:01.299Z,21.94
2024-04-08T22:28:28.807Z,21.93
2024-04-08T22:30:56.320Z,21.94
2024-04-08T22:33:23.945Z,21.93
2024-04-08T22:35:51.833Z,21.93
2024-04-08T22:38:19.306Z,21.94
2024-04-08T22:40:46.851Z,21.93
2024-04-08T22:43:14.335Z,21.94
2024-04-08T22:45:42.026Z,21.93
2024-04-08T22:48:09.761Z,21.93
2024-04-08T22:50:37.965Z,21.93
2024-04-08T22:53:05.828Z,21.93
2024-04-08T22:55:33.321Z,21.92
2024-04-08T22:58:02.519Z,21.92
2024-04-08T23:00:30.745Z,21.92
2024-04-08T23:03:00.938Z,21.89
2024-04-08T23:05:29.284Z,21.90
2024-04-08T23:07:56.710Z,21.89
2024-04-08T23:10:25.761Z,21.90
2024-04-08T23:12:53.228Z,21.89
2024-04-08T23:15:20.910Z,21.88
2024-04-08T23:17:48.560Z,21.87
2024-04-08T23:20:16.059Z,21.88
2024-04-08T23:22:43.451Z,21.86
2024-04-08T23:25:10.948Z,21.85
2024-04-08T23:27:38.833Z,21.85
2024-04-08T23:30:07.369Z,21.85
2024-04-08T23:32:35.302Z,21.84
2024-04-08T23:35:03.916Z,21.82
2024-04-08T23:37:31.617Z,21.83
2024-04-08T23:39:59.179Z,21.83
2024-04-08T23:42:26.739Z,21.82
2024-04-08T23:44:54.264Z,21.81
2024-04-08T23:47:21.994Z,21.82
2024-04-08T23:49:49.447Z,21.81
2024-04-08T23:52:16.918Z,21.81
2024-04-08T23:54:44.637Z,21.80
2024-04-08T23:57:12.224Z,21.80
2024-04-08T23:59:39.657Z,21.79
